Time;durP1;ratioP1;P1;durP2;ratioP2;P2;SDS_P1;SDS_P2;PMS_P1;PMS_P2;Temp;Humidity;BMP_temperature;BMP_pressure;BME280_temperature;BME280_humidity;BME280_pressure;Samples;Min_cycle;Max_cycle;Signal;HPM_P1;HPM_P2
2022/03/07 00:00:33;;;;;;;5.78;4.38;;;;;;;21.47;nan;99182.88;5089705;28;20523;-57
2022/03/07 00:02:58;;;;;;;5.38;4.10;;;;;;;21.50;nan;99182.88;5089658;28;20135;-57
2022/03/07 00:05:23;;;;;;;5.72;4.32;;;;;;;21.50;nan;99184.88;5089641;28;20393;-57
2022/03/07 00:07:49;;;;;;;5.47;4.32;;;;;;;21.50;nan;99182.09;5089712;28;20470;-57
2022/03/07 00:10:14;;;;;;;5.47;4.53;;;;;;;21.50;nan;99182.09;5089572;28;20040;-57
2022/03/07 00:12:40;;;;;;;5.65;4.28;;;;;;;21.50;nan;99191.22;5089673;28;20516;-57
2022/03/07 00:15:05;;;;;;;5.85;4.03;;;;;;;21.50;nan;99191.22;5089319;28;20036;-57
2022/03/07 00:17:31;;;;;;;5.25;3.95;;;;;;;21.50;nan;99184.88;5089607;28;20041;-57
2022/03/07 00:19:56;;;;;;;6.05;4.32;;;;;;;21.49;nan;99189.63;5089555;28;20052;-57
2022/03/07 00:22:21;;;;;;;6.00;4.60;;;;;;;21.49;nan;99189.63;5089489;28;20036;-57
2022/03/07 00:24:47;;;;;;;5.85;4.38;;;;;;;21.49;nan;99192.41;5089526;28;20044;-57
2022/03/07 00:27:12;;;;;;;6.50;4.63;;;;;;;21.47;nan;99185.66;5089350;28;20044;-57
2022/03/07 00:29:38;;;;;;;5.70;4.35;;;;;;;21.48;nan;99188.03;5089305;28;20050;-57
2022/03/07 00:32:04;;;;;;;6.05;4.70;;;;;;;21.49;nan;99191.63;5089271;28;20064;-57
2022/03/07 00:34:29;;;;;;;5.78;4.63;;;;;;;21.47;nan;99189.22;5087895;28;20079;-57
2022/03/07 00:36:57;;;;;;;6.43;4.65;;;;;;;21.45;nan;99191.59;5090151;28;20055;-57
2022/03/07 00:39:23;;;;;;;5.75;4.28;;;;;;;21.48;nan;99198.38;5092824;28;20105;-57
2022/03/07 00:41:48;;;;;;;6.13;4.63;;;;;;;21.48;nan;99198.38;5092877;28;20442;-57
2022/03/07 00:44:13;;;;;;;5.97;4.43;;;;;;;21.46;nan;99197.97;5092798;28;20048;-57
2022/03/07 00:46:39;;;;;;;6.47;4.65;;;;;;;21.46;nan;99200.75;5092741;28;20044;-57
2022/03/07 00:49:05;;;;;;;5.78;4.40;;;;;;;21.42;nan;99195.13;5092445;28;20052;-56
2022/03/07 00:51:30;;;;;;;5.55;4.47;;;;;;;21.47;nan;99202.34;5092576;28;20048;-57
2022/03/07 00:53:55;;;;;;;6.55;4.70;;;;;;;21.45;nan;99201.94;5092486;28;20044;-57
2022/03/07 00:56:21;;;;;;;6.20;4.53;;;;;;;21.45;nan;99201.94;5092681;28;20122;-57
2022/03/07 00:58:46;;;;;;;5.38;4.13;;;;;;;21.46;nan;99206.31;5092613;28;20127;-57
2022/03/07 01:01:12;;;;;;;5.72;4.55;;;;;;;21.45;nan;99204.72;5092694;28;20036;-57
2022/03/07 01:03:37;;;;;;;5.75;4.40;;;;;;;21.45;nan;99210.28;5092582;28;20044;-57
2022/03/07 01:06:03;;;;;;;5.10;4.00;;;;;;;21.45;nan;99213.06;5092368;28;20056;-57
2022/03/07 01:08:28;;;;;;;6.10;4.50;;;;;;;21.45;nan;99211.09;5092322;28;20433;-57
2022/03/07 01:10:54;;;;;;;5.75;4.50;;;;;;;21.46;nan;99206.31;5092427;28;20044;-57
2022/03/07 01:13:19;;;;;;;6.25;4.82;;;;;;;21.44;nan;99201.16;5092275;28;20411;-57
2022/03/07 01:15:45;;;;;;;5.05;4.00;;;;;;;21.43;nan;99194.78;5092084;28;20397;-57
2022/03/07 01:18:11;;;;;;;5.72;4.50;;;;;;;21.45;nan;99199.16;5092188;28;20125;-57
2022/03/07 01:20:36;;;;;;;5.22;3.90;;;;;;;21.45;nan;99204.72;5092339;28;20059;-56
2022/03/07 01:23:02;;;;;;;5.65;4.07;;;;;;;21.42;nan;99201.50;5092213;28;21423;-57
2022/03/07 01:25:28;;;;;;;5.50;4.43;;;;;;;21.43;nan;99193.94;5091801;28;20047;-57
2022/03/07 01:27:54;;;;;;;5.28;4.43;;;;;;;21.42;nan;99201.50;5092042;28;20044;-57
2022/03/07 01:30:19;;;;;;;5.75;4.43;;;;;;;21.42;nan;99195.13;5092147;28;20455;-56
2022/03/07 01:32:45;;;;;;;5.60;4.20;;;;;;;21.43;nan;99193.94;5091947;28;20058;-57
2022/03/07 01:35:10;;;;;;;6.45;4.95;;;;;;;21.41;nan;99199.91;5091829;28;20404;-57
2022/03/07 01:37:36;;;;;;;5.72;4.30;;;;;;;21.41;nan;99193.53;5089674;28;20103;-57
2022/03/07 01:40:01;;;;;;;5.57;4.60;;;;;;;21.42;nan;99195.94;5091991;28;20036;-57
2022/03/07 01:42:27;;;;;;;5.47;4.30;;;;;;;21.41;nan;99197.13;5092119;28;20040;-57
2022/03/07 01:44:52;;;;;;;5.65;4.40;;;;;;;21.42;nan;99192.34;5091847;28;20070;-56
2022/03/07 01:47:18;;;;;;;5.20;4.05;;;;;;;21.42;nan;99192.34;5091736;28;20044;-56
2022/03/07 01:49:43;;;;;;;5.75;4.30;;;;;;;21.41;nan;99191.56;5090999;28;20062;-57
2022/03/07 01:52:09;;;;;;;5.88;4.45;;;;;;;21.40;nan;99189.97;5091641;28;20437;-57
2022/03/07 01:54:34;;;;;;;5.32;3.97;;;;;;;21.39;nan;99191.16;5091633;28;20503;-57
2022/03/07 01:57:00;;;;;;;5.47;4.15;;;;;;;21.38;nan;99185.97;5089576;28;20131;-57
2022/03/07 01:59:28;;;;;;;5.25;4.32;;;;;;;21.40;nan;99184.41;5091522;28;20121;-57
2022/03/07 02:01:55;;;;;;;5.32;4.00;;;;;;;21.40;nan;99181.63;5091573;28;20051;-57
2022/03/07 02:04:20;;;;;;;5.63;4.15;;;;;;;21.40;nan;99189.97;5091488;28;20560;-57
2022/03/07 02:06:47;;;;;;;5.38;4.40;;;;;;;21.41;nan;99179.63;5091477;28;20131;-57
2022/03/07 02:09:15;;;;;;;5.45;4.10;;;;;;;21.39;nan;99180.03;5091435;28;20055;-57
2022/03/07 02:11:40;;;;;;;5.18;3.92;;;;;;;21.39;nan;99180.03;5091502;28;20048;-57
2022/03/07 02:14:22;;;;;;;5.53;4.18;;;;;;;21.40;nan;99186.38;5091368;28;20044;-57
2022/03/07 02:16:48;;;;;;;5.97;4.20;;;;;;;21.40;nan;99178.84;5091398;28;20135;-57
2022/03/07 02:19:14;;;;;;;4.95;3.97;;;;;;;21.39;nan;99184.78;5091364;28;20044;-56
2022/03/07 02:21:44;;;;;;;5.50;3.92;;;;;;;21.35;nan;99176.41;5091276;28;20047;-57
2022/03/07 02:24:10;;;;;;;4.97;3.88;;;;;;;21.36;nan;99177.19;5091239;28;20071;-57
2022/03/07 02:26:35;;;;;;;5.50;4.07;;;;;;;21.39;nan;99182.00;5091085;28;20533;-57
2022/03/07 02:29:01;;;;;;;5.90;4.50;;;;;;;21.38;nan;99180.41;5090679;28;20101;-57
2022/03/07 02:31:26;;;;;;;4.93;3.70;;;;;;;21.38;nan;99184.00;5090698;28;20040;-57
2022/03/07 02:33:52;;;;;;;6.43;4.43;;;;;;;21.39;nan;99180.03;5091111;28;20076;-57
2022/03/07 02:36:18;;;;;;;5.32;4.22;;;;;;;21.38;nan;99177.63;5090787;28;20043;-57
2022/03/07 02:38:43;;;;;;;5.63;4.32;;;;;;;21.37;nan;99187.16;5090929;28;20040;-57
2022/03/07 02:41:09;;;;;;;5.20;4.15;;;;;;;21.36;nan;99183.59;5091034;28;20082;-57
2022/03/07 02:43:34;;;;;;;5.28;3.95;;;;;;;21.35;nan;99176.41;5091151;28;20434;-57
2022/03/07 02:46:01;;;;;;;5.35;4.05;;;;;;;21.35;nan;99170.03;5090898;28;20411;-57
2022/03/07 02:48:27;;;;;;;5.47;4.32;;;;;;;21.35;nan;99176.41;5090693;28;20614;-57
2022/03/07 02:50:53;;;;;;;5.30;4.07;;;;;;;21.37;nan;99176.03;5090884;28;20076;-57
2022/03/07 02:53:19;;;;;;;5.20;4.15;;;;;;;21.37;nan;99171.28;5090637;28;20150;-57
2022/03/07 02:55:44;;;;;;;5.70;4.22;;;;;;;21.36;nan;99174.41;5090590;28;20062;-57
2022/03/07 02:58:10;;;;;;;6.18;4.75;;;;;;;21.35;nan;99168.06;5090466;28;20046;-60
2022/03/07 03:00:37;;;;;;;5.40;4.22;;;;;;;21.35;nan;99172.81;5089373;28;20044;-61
2022/03/07 03:03:06;;;;;;;6.03;4.43;;;;;;;21.35;nan;99170.03;5090783;28;20040;-61
2022/03/07 03:05:31;;;;;;;5.90;4.55;;;;;;;21.35;nan;99173.63;5090579;28;20040;-61
2022/03/07 03:07:57;;;;;;;5.25;4.22;;;;;;;21.35;nan;99161.69;5090434;28;20048;-61
2022/03/07 03:10:23;;;;;;;5.32;4.13;;;;;;;21.35;nan;99167.25;5090371;28;20094;-61
2022/03/07 03:12:49;;;;;;;5.40;4.43;;;;;;;21.35;nan;99167.25;5090236;28;20075;-61
2022/03/07 03:15:15;;;;;;;5.35;4.22;;;;;;;21.33;nan;99164.06;5090263;28;20036;-60
2022/03/07 03:17:41;;;;;;;5.63;4.35;;;;;;;21.34;nan;99154.53;5088412;28;20051;-60
2022/03/07 03:20:12;;;;;;;5.93;4.45;;;;;;;21.32;nan;99159.69;5090102;28;20065;-60
2022/03/07 03:22:42;;;;;;;6.05;4.53;;;;;;;21.33;nan;99158.50;5090388;28;20132;-61
2022/03/07 03:25:09;;;;;;;5.18;4.13;;;;;;;21.32;nan;99157.72;5090242;28;20044;-61
2022/03/07 03:27:36;;;;;;;5.63;4.53;;;;;;;21.32;nan;99165.25;5090223;28;20131;-61
2022/03/07 03:30:03;;;;;;;5.43;4.30;;;;;;;21.32;nan;99160.50;5089309;28;20043;-61
2022/03/07 03:32:29;;;;;;;5.40;4.03;;;;;;;21.33;nan;99164.88;5090320;28;20044;-61
2022/03/07 03:34:56;;;;;;;5.50;4.43;;;;;;;21.33;nan;99164.88;5090156;28;20051;-61
2022/03/07 03:37:23;;;;;;;5.80;4.32;;;;;;;21.32;nan;99166.06;5090284;28;20064;-61
2022/03/07 03:39:49;;;;;;;5.78;4.43;;;;;;;21.32;nan;99170.81;5090226;28;20040;-60
2022/03/07 03:42:14;;;;;;;6.20;4.75;;;;;;;21.33;nan;99161.28;5090217;28;20205;-61
2022/03/07 03:44:40;;;;;;;6.40;4.80;;;;;;;21.32;nan;99157.72;5090373;28;20051;-61
2022/03/07 03:47:05;;;;;;;5.95;4.72;;;;;;;21.30;nan;99165.66;5090129;28;20441;-61
2022/03/07 03:49:31;;;;;;;5.28;4.07;;;;;;;21.30;nan;99164.84;5090029;28;20048;-61
2022/03/07 03:51:57;;;;;;;5.47;4.32;;;;;;;21.29;nan;99158.50;5090076;28;20047;-61
2022/03/07 03:54:25;;;;;;;5.53;4.50;;;;;;;21.30;nan;99168.44;5090005;28;20044;-61
2022/03/07 03:56:51;;;;;;;5.30;4.05;;;;;;;21.30;nan;99164.84;5089839;28;20044;-61
2022/03/07 03:59:16;;;;;;;6.13;5.03;;;;;;;21.30;nan;99167.63;5089850;28;20047;-61
2022/03/07 04:01:45;;;;;;;5.18;4.18;;;;;;;21.29;nan;99172.41;5071654;28;20047;-61
2022/03/07 04:04:14;;;;;;;5.25;4.20;;;;;;;21.29;nan;99171.56;5089897;28;20090;-61
2022/03/07 04:06:41;;;;;;;5.13;4.00;;;;;;;21.30;nan;99168.44;5089923;28;20504;-61
2022/03/07 04:09:18;;;;;;;6.40;4.90;;;;;;;21.29;nan;99175.19;5089605;28;20113;-60
2022/03/07 04:11:44;;;;;;;5.50;4.10;;;;;;;21.29;nan;99179.91;5091303;28;20120;-61
2022/03/07 04:14:10;;;;;;;5.72;4.43;;;;;;;21.26;nan;99175.91;5096330;28;20509;-61
2022/03/07 04:16:38;;;;;;;6.28;4.82;;;;;;;21.30;nan;99182.34;5096327;28;20036;-61
2022/03/07 04:19:03;;;;;;;6.10;4.45;;;;;;;21.29;nan;99180.75;5096449;28;20080;-61
2022/03/07 04:21:28;;;;;;;5.15;4.00;;;;;;;21.29;nan;99177.13;5096142;28;20453;-61
2022/03/07 04:23:54;;;;;;;5.15;4.10;;;;;;;21.29;nan;99177.97;5096149;28;20046;-61
2022/03/07 04:26:20;;;;;;;5.90;4.53;;;;;;;21.28;nan;99172.75;5096262;28;20050;-61
2022/03/07 04:28:45;;;;;;;5.80;4.28;;;;;;;21.28;nan;99178.31;5077650;28;20052;-61
2022/03/07 04:31:11;;;;;;;5.43;4.40;;;;;;;21.62;nan;99176.22;5096099;28;20569;-61
2022/03/07 04:33:37;;;;;;;5.63;4.40;;;;;;;22.40;nan;99179.53;5096280;28;20044;-61
2022/03/07 04:36:03;;;;;;;5.47;4.43;;;;;;;23.20;nan;99178.59;5096217;28;20094;-61
2022/03/07 04:38:28;;;;;;;6.38;4.97;;;;;;;23.77;nan;99173.84;5096019;28;20052;-61
2022/03/07 04:40:54;;;;;;;5.80;4.40;;;;;;;23.58;nan;99183.41;5096170;28;20044;-61
2022/03/07 04:43:20;;;;;;;5.30;4.30;;;;;;;23.19;nan;99165.84;5095995;28;20411;-61
2022/03/07 04:45:45;;;;;;;4.95;3.75;;;;;;;22.87;nan;99174.16;5095993;28;20048;-60
2022/03/07 04:48:10;;;;;;;5.22;4.30;;;;;;;22.57;nan;99177.19;5096071;28;20061;-61
2022/03/07 04:50:36;;;;;;;5.57;4.25;;;;;;;22.33;nan;99179.50;5095993;28;20044;-61
2022/03/07 04:53:01;;;;;;;5.25;4.25;;;;;;;22.16;nan;99178.22;5095895;28;20142;-61
2022/03/07 04:55:27;;;;;;;4.80;3.90;;;;;;;22.02;nan;99178.09;5095814;28;20059;-61
2022/03/07 04:57:52;;;;;;;5.43;4.38;;;;;;;21.90;nan;99181.19;5095915;28;20055;-60
2022/03/07 05:00:18;;;;;;;5.72;4.70;;;;;;;21.81;nan;99181.56;5095879;28;20055;-61
2022/03/07 05:02:44;;;;;;;5.93;4.50;;;;;;;21.74;nan;99177.91;5095586;28;20048;-61
2022/03/07 05:05:10;;;;;;;5.43;4.07;;;;;;;21.69;nan;99188.22;5095969;28;20075;-61
2022/03/07 05:07:35;;;;;;;5.38;4.10;;;;;;;21.64;nan;99187.78;5095938;28;20457;-61
2022/03/07 05:10:02;;;;;;;5.40;4.10;;;;;;;21.60;nan;99190.53;5095554;28;20043;-61
2022/03/07 05:12:27;;;;;;;5.57;4.55;;;;;;;21.55;nan;99190.88;5095875;28;20036;-61
2022/03/07 05:14:53;;;;;;;5.72;4.40;;;;;;;21.54;nan;99192.06;5095530;28;20040;-61
2022/03/07 05:17:18;;;;;;;5.18;4.07;;;;;;;21.50;nan;99187.66;5095528;28;20127;-61
2022/03/07 05:19:45;;;;;;;5.43;4.40;;;;;;;21.50;nan;99185.66;5095809;28;20051;-60
2022/03/07 05:22:11;;;;;;;5.07;4.20;;;;;;;21.48;nan;99181.69;5095658;28;20531;-60
2022/03/07 05:24:36;;;;;;;6.07;4.40;;;;;;;21.46;nan;99184.84;5091790;28;20047;-60
2022/03/07 05:27:02;;;;;;;5.57;4.38;;;;;;;21.45;nan;99190.81;5092197;28;20126;-60
2022/03/07 05:29:27;;;;;;;5.43;4.30;;;;;;;21.42;nan;99178.44;5092192;28;20052;-60
2022/03/07 05:31:53;;;;;;;5.68;4.88;;;;;;;21.42;nan;99187.59;5092013;28;20040;-60
2022/03/07 05:34:18;;;;;;;5.15;4.03;;;;;;;21.41;nan;99188.78;5092146;28;20063;-61
2022/03/07 05:36:43;;;;;;;5.65;4.25;;;;;;;21.40;nan;99184.41;5092071;28;20451;-61
2022/03/07 05:39:10;;;;;;;5.57;4.35;;;;;;;21.40;nan;99194.72;5091906;28;20480;-60
2022/03/07 05:41:36;;;;;;;4.82;3.95;;;;;;;21.45;nan;99183.25;5091953;28;20044;-61
2022/03/07 05:44:02;;;;;;;6.22;4.60;;;;;;;21.87;nan;99196.72;5091842;28;20377;-61
2022/03/07 05:46:28;;;;;;;5.45;4.20;;;;;;;22.43;nan;99195.47;5091729;28;20046;-60
2022/03/07 05:48:53;;;;;;;5.15;3.95;;;;;;;23.14;nan;99197.72;5091412;28;20040;-61
2022/03/07 05:51:23;;;;;;;5.43;3.92;;;;;;;23.59;nan;99196.16;5091722;28;20068;-61
2022/03/07 05:53:50;;;;;;;5.40;4.55;;;;;;;23.33;nan;99185.38;5090185;28;20159;-61
2022/03/07 05:56:16;;;;;;;5.28;4.30;;;;;;;22.98;nan;99186.91;5089645;28;20140;-61
2022/03/07 05:58:41;;;;;;;5.13;4.10;;;;;;;22.71;nan;99191.97;5091462;28;20072;-61
2022/03/07 06:01:07;;;;;;;5.57;4.07;;;;;;;22.49;nan;99198.66;5091653;28;20120;-60
2022/03/07 06:03:32;;;;;;;5.28;4.60;;;;;;;22.28;nan;99204.13;5091361;28;20117;-60
2022/03/07 06:05:57;;;;;;;5.40;4.15;;;;;;;22.10;nan;99206.84;5091338;28;20040;-61
2022/03/07 06:08:23;;;;;;;5.30;4.30;;;;;;;22.01;nan;99203.56;5091373;28;20048;-60
2022/03/07 06:10:49;;;;;;;5.45;4.45;;;;;;;21.89;nan;99213.03;5091441;28;20389;-61
2022/03/07 06:13:15;;;;;;;6.07;4.50;;;;;;;21.82;nan;99213.78;5091427;28;20037;-61
2022/03/07 06:15:43;;;;;;;5.70;4.20;;;;;;;21.75;nan;99210.94;5091068;28;20036;-61
2022/03/07 06:18:11;;;;;;;9.85;3.97;;;;;;;21.71;nan;99210.09;5073405;28;20048;-60
2022/03/07 06:20:36;;;;;;;15.27;4.70;;;;;;;21.68;nan;99219.22;5091268;28;20126;-61
2022/03/07 06:23:04;;;;;;;52.05;5.88;;;;;;;21.65;nan;99214.44;5091186;28;20152;-61
2022/03/07 06:25:30;;;;;;;38.22;5.68;;;;;;;21.63;nan;99222.34;5091181;28;20043;-61
2022/03/07 06:27:56;;;;;;;30.52;5.65;;;;;;;21.61;nan;99221.94;5091002;28;20051;-61
2022/03/07 06:30:21;;;;;;;24.70;5.18;;;;;;;21.60;nan;99234.28;5090957;28;20048;-61
2022/03/07 06:32:47;;;;;;;26.17;4.78;;;;;;;21.58;nan;99231.09;5091017;28;20048;-61
2022/03/07 06:35:13;;;;;;;22.10;4.80;;;;;;;21.55;nan;99238.19;5090700;28;20048;-61
2022/03/07 06:37:45;;;;;;;17.42;4.95;;;;;;;21.53;nan;99235.00;5090653;28;20044;-61
2022/03/07 06:40:11;;;;;;;14.73;4.87;;;;;;;21.52;nan;99238.97;5089570;28;20098;-61
2022/03/07 06:42:36;;;;;;;19.60;4.70;;;;;;;21.49;nan;99244.50;5090899;28;20055;-61
2022/03/07 06:45:02;;;;;;;13.07;4.60;;;;;;;21.52;nan;99250.09;5090743;28;20450;-61
2022/03/07 06:47:28;;;;;;;11.13;4.45;;;;;;;21.46;nan;99240.50;5090665;28;20500;-61
2022/03/07 06:49:57;;;;;;;20.55;4.65;;;;;;;21.50;nan;99252.44;5090715;28;20043;-61
2022/03/07 06:52:23;;;;;;;11.05;4.55;;;;;;;21.50;nan;99251.66;5088751;28;20352;-61
2022/03/07 06:54:49;;;;;;;10.57;4.93;;;;;;;21.48;nan;99249.25;5090528;28;20071;-61
2022/03/07 06:57:14;;;;;;;8.95;4.60;;;;;;;21.50;nan;99255.25;5090473;28;20048;-61
2022/03/07 06:59:40;;;;;;;14.30;4.63;;;;;;;21.48;nan;99254.81;5090611;28;20055;-61
2022/03/07 07:02:05;;;;;;;10.55;4.38;;;;;;;21.49;nan;99255.63;5090265;28;20135;-61
2022/03/07 07:04:31;;;;;;;14.80;4.75;;;;;;;21.48;nan;99262.38;5090455;28;20044;-61
2022/03/07 07:06:56;;;;;;;7.30;4.60;;;;;;;21.47;nan;99261.59;5090346;28;20067;-61
2022/03/07 07:09:21;;;;;;;7.00;4.97;;;;;;;21.47;nan;99266.34;5090254;28;20063;-61
2022/03/07 07:11:47;;;;;;;7.25;4.68;;;;;;;21.46;nan;99279.47;5090319;28;20143;-61
2022/03/07 07:14:12;;;;;;;8.30;4.55;;;;;;;21.47;nan;99280.25;5090317;28;20416;-61
2022/03/07 07:16:38;;;;;;;8.73;4.88;;;;;;;21.47;nan;99281.06;5090267;28;20301;-61
2022/03/07 07:19:03;;;;;;;6.35;4.82;;;;;;;21.46;nan;99284.22;5090343;28;20088;-61
2022/03/07 07:21:28;;;;;;;9.43;4.47;;;;;;;21.46;nan;99282.25;5090377;28;20135;-61
2022/03/07 07:23:54;;;;;;;6.30;4.30;;;;;;;21.47;nan;99285.81;5089941;28;20044;-61
2022/03/07 07:26:19;;;;;;;6.45;4.70;;;;;;;21.46;nan;99284.22;5090239;28;20040;-61
2022/03/07 07:28:46;;;;;;;6.95;4.80;;;;;;;21.47;nan;99292.19;5090250;28;20105;-61
2022/03/07 07:31:11;;;;;;;5.85;4.65;;;;;;;21.47;nan;99291.41;5089762;28;20405;-63
2022/03/07 07:33:37;;;;;;;8.55;4.90;;;;;;;21.45;nan;99289.00;5090066;28;20044;-62
2022/03/07 07:36:03;;;;;;;6.22;4.75;;;;;;;21.48;nan;99295.78;5089952;28;20044;-62
2022/03/07 07:38:28;;;;;;;6.78;4.43;;;;;;;21.47;nan;99288.59;5087918;28;20515;-62
2022/03/07 07:40:55;;;;;;;7.15;4.75;;;;;;;21.47;nan;99294.97;5090049;28;20576;-62
2022/03/07 07:43:21;;;;;;;5.60;4.40;;;;;;;21.48;nan;99293.00;5089706;28;20138;-62
2022/03/07 07:45:46;;;;;;;6.18;4.68;;;;;;;21.45;nan;99294.56;5089968;28;20135;-62
2022/03/07 07:48:12;;;;;;;5.68;4.60;;;;;;;21.46;nan;99289.78;5085933;28;20048;-63
2022/03/07 07:50:37;;;;;;;5.90;4.93;;;;;;;21.46;nan;99300.94;5085753;28;20408;-63
2022/03/07 07:53:03;;;;;;;5.20;4.35;;;;;;;21.58;nan;99295.09;5082568;28;20462;-62
2022/03/07 07:55:29;;;;;;;6.28;4.38;;;;;;;22.14;nan;99291.19;5086194;28;20170;-61
2022/03/07 07:57:54;;;;;;;5.63;4.53;;;;;;;22.80;nan;99297.59;5079580;28;20131;-61
2022/03/07 08:00:20;;;;;;;6.82;4.40;;;;;;;23.36;nan;99296.25;5089314;28;20044;-62
2022/03/07 08:02:47;;;;;;;5.80;4.85;;;;;;;23.82;nan;99292.75;5081711;28;20045;-60
2022/03/07 08:05:13;;;;;;;5.68;4.35;;;;;;;24.16;nan;99295.94;5069455;28;20045;-62
2022/03/07 08:07:41;;;;;;;5.13;4.20;;;;;;;24.49;nan;99305.88;5074836;28;20032;-61
2022/03/07 08:10:07;;;;;;;6.82;4.30;;;;;;;24.69;nan;99295.06;5085095;28;20052;-61
2022/03/07 08:12:32;;;;;;;5.75;4.22;;;;;;;24.86;nan;99302.63;5076332;28;20048;-62
2022/03/07 08:14:59;;;;;;;4.97;3.92;;;;;;;24.97;nan;99302.56;5073323;28;20051;-62
2022/03/07 08:17:24;;;;;;;5.78;3.97;;;;;;;25.07;nan;99298.13;5077067;28;20526;-63
2022/03/07 08:19:49;;;;;;;7.25;4.50;;;;;;;25.13;nan;99300.09;5078207;28;20040;-62
2022/03/07 08:22:15;;;;;;;5.53;4.40;;;;;;;25.35;nan;99308.41;5078107;28;20051;-62
2022/03/07 08:24:40;;;;;;;5.65;4.32;;;;;;;25.49;nan;99295.09;5081450;28;20048;-62
2022/03/07 08:27:05;;;;;;;4.80;3.92;;;;;;;25.57;nan;99295.84;5074343;28;20047;-63
2022/03/07 08:29:31;;;;;;;4.25;3.58;;;;;;;25.65;nan;99294.63;5075396;28;20055;-63
2022/03/07 08:31:56;;;;;;;5.22;3.90;;;;;;;25.74;nan;99302.59;5089070;28;20388;-63
2022/03/07 08:34:22;;;;;;;5.25;4.03;;;;;;;25.69;nan;99300.19;5079406;28;20042;-63
2022/03/07 08:36:47;;;;;;;5.32;4.20;;;;;;;25.80;nan;99295.34;5078005;28;20368;-63
2022/03/07 08:39:13;;;;;;;4.55;3.53;;;;;;;25.93;nan;99298.44;5086218;28;20131;-62
2022/03/07 08:41:38;;;;;;;5.13;4.05;;;;;;;25.98;nan;99304.41;5079010;28;20045;-62
2022/03/07 08:44:04;;;;;;;5.38;3.92;;;;;;;26.02;nan;99295.97;5081266;28;20048;-62
2022/03/07 08:46:29;;;;;;;4.38;3.40;;;;;;;26.00;nan;99299.19;5076000;28;20502;-62
2022/03/07 08:48:54;;;;;;;4.72;3.85;;;;;;;26.08;nan;99293.53;5086779;28;20044;-62
2022/03/07 08:51:20;;;;;;;4.32;3.63;;;;;;;26.17;nan;99296.66;5076360;28;20048;-61
2022/03/07 08:53:45;;;;;;;4.88;3.78;;;;;;;26.22;nan;99296.19;5080753;28;20040;-62
2022/03/07 08:56:12;;;;;;;5.10;3.95;;;;;;;26.23;nan;99284.56;5069452;28;20048;-61
2022/03/07 08:58:38;;;;;;;4.97;3.60;;;;;;;26.29;nan;99293.31;5086461;28;20068;-62
2022/03/07 09:01:04;;;;;;;5.13;3.60;;;;;;;26.31;nan;99302.13;5067575;28;20512;-62
2022/03/07 09:03:29;;;;;;;4.50;3.60;;;;;;;26.31;nan;99290.91;5086155;28;20041;-61
2022/03/07 09:05:55;;;;;;;5.25;4.05;;;;;;;26.24;nan;99302.97;5076243;28;20055;-60
2022/03/07 09:08:20;;;;;;;6.13;3.80;;;;;;;26.28;nan;99306.53;5078076;28;20045;-61
2022/03/07 09:10:46;;;;;;;4.78;3.83;;;;;;;26.33;nan;99297.69;5079242;28;20044;-62
2022/03/07 09:13:11;;;;;;;4.35;3.50;;;;;;;26.32;nan;99300.91;5080915;28;20057;-61
2022/03/07 09:15:37;;;;;;;5.30;3.80;;;;;;;26.35;nan;99308.47;5079515;28;20033;-62
2022/03/07 09:18:02;;;;;;;4.15;3.28;;;;;;;26.34;nan;99304.09;5086539;28;20068;-59
2022/03/07 09:20:28;;;;;;;4.93;3.67;;;;;;;26.38;nan;99298.44;5089146;28;20048;-61
2022/03/07 09:22:53;;;;;;;4.90;3.60;;;;;;;26.44;nan;99294.03;5082963;28;20048;-61
2022/03/07 09:25:19;;;;;;;4.35;3.55;;;;;;;26.41;nan;99301.25;5073511;28;20044;-60
2022/03/07 09:27:44;;;;;;;4.57;3.72;;;;;;;26.54;nan;99296.69;5079288;28;20051;-60
2022/03/07 09:30:12;;;;;;;4.93;3.65;;;;;;;26.68;nan;99292.94;5084367;28;20036;-61
2022/03/07 09:32:37;;;;;;;4.80;3.83;;;;;;;26.76;nan;99299.28;5080622;28;20033;-61
2022/03/07 09:35:04;;;;;;;5.80;3.45;;;;;;;26.76;nan;99283.22;5055470;28;20052;-61
2022/03/07 09:37:29;;;;;;;5.53;3.70;;;;;;;26.83;nan;99287.97;5081654;28;20047;-61
2022/03/07 09:39:55;;;;;;;4.60;3.65;;;;;;;26.90;nan;99287.88;5087226;28;20051;-60
2022/03/07 09:42:21;;;;;;;5.82;3.70;;;;;;;26.87;nan;99283.91;5096216;28;20078;-61
2022/03/07 09:44:48;;;;;;;4.85;3.25;;;;;;;26.92;nan;99279.03;5102654;28;20819;-61
2022/03/07 09:47:14;;;;;;;6.40;3.50;;;;;;;26.89;nan;99278.66;5098423;28;20112;-61
2022/03/07 09:49:40;;;;;;;5.22;3.28;;;;;;;26.86;nan;99276.72;5104043;28;20709;-61
2022/03/07 09:52:05;;;;;;;4.60;3.28;;;;;;;26.93;nan;99280.63;5098533;28;20062;-61
2022/03/07 09:54:31;;;;;;;4.00;3.17;;;;;;;26.97;nan;99278.56;5097351;28;20104;-62
2022/03/07 09:56:57;;;;;;;3.95;3.25;;;;;;;27.02;nan;99278.13;5096142;28;20040;-61
2022/03/07 09:59:23;;;;;;;4.20;3.45;;;;;;;27.11;nan;99267.19;5103078;28;20865;-60
2022/03/07 10:02:24;;;;;;;4.80;3.58;;;;;;;27.21;nan;99260.63;5093755;28;20055;-60
2022/03/07 10:04:51;;;;;;;5.25;3.58;;;;;;;27.29;nan;99264.13;5080880;28;20519;-60
2022/03/07 10:07:16;;;;;;;4.60;3.50;;;;;;;27.15;nan;99259.53;5098870;28;20055;-61
2022/03/07 10:09:42;;;;;;;4.75;3.70;;;;;;;26.41;nan;99261.97;5100017;27;20048;-61
2022/03/07 10:12:08;;;;;;;6.13;4.07;;;;;;;25.74;nan;99254.97;5100096;28;20070;-62
2022/03/07 10:14:42;;;;;;;4.80;3.92;;;;;;;25.21;nan;99259.69;5099571;28;20737;-63
2022/03/07 10:17:21;;;;;;;5.68;4.10;;;;;;;24.71;nan;99253.50;5099504;28;20050;-62
2022/03/07 10:19:48;;;;;;;5.07;4.13;;;;;;;24.38;nan;99243.63;5097588;28;20044;-62
2022/03/07 10:22:19;;;;;;;5.15;3.85;;;;;;;24.07;nan;99243.22;5103351;28;20052;-61
2022/03/07 10:24:45;;;;;;;6.78;4.25;;;;;;;23.81;nan;99241.69;5103926;28;20040;-61
2022/03/07 10:27:23;;;;;;;5.72;3.90;;;;;;;23.62;nan;99242.06;5104192;28;20036;-61
2022/03/07 10:29:48;;;;;;;4.97;3.85;;;;;;;23.47;nan;99235.63;5101036;28;20054;-61
2022/03/07 10:32:18;;;;;;;5.30;4.32;;;;;;;23.34;nan;99231.63;5097049;28;20039;-62
2022/03/07 10:34:44;;;;;;;5.03;4.10;;;;;;;23.26;nan;99227.22;5099892;28;20062;-62
2022/03/07 10:37:09;;;;;;;5.45;4.03;;;;;;;23.17;nan;99230.41;5097263;28;20036;-62
2022/03/07 10:39:35;;;;;;;6.25;4.28;;;;;;;23.13;nan;99223.22;5098739;28;20036;-62
2022/03/07 10:42:00;;;;;;;4.88;3.90;;;;;;;23.08;nan;99221.63;5097663;28;20090;-66
2022/03/07 10:44:27;;;;;;;5.72;4.28;;;;;;;23.02;nan;99226.00;5100726;28;20047;-63
2022/03/07 10:46:53;;;;;;;7.28;3.72;;;;;;;22.96;nan;99222.78;5102966;28;20078;-62
2022/03/07 10:49:18;;;;;;;5.55;3.97;;;;;;;22.90;nan;99227.16;5097161;28;20146;-62
2022/03/07 10:51:52;;;;;;;5.07;4.05;;;;;;;22.87;nan;99219.56;5089932;28;20070;-63
2022/03/07 10:54:20;;;;;;;5.80;4.00;;;;;;;22.90;nan;99221.56;5098734;28;20047;-64
2022/03/07 10:56:50;;;;;;;5.85;4.07;;;;;;;22.87;nan;99210.41;5098245;28;20048;-62
2022/03/07 10:59:29;;;;;;;12.20;4.63;;;;;;;22.89;nan;99208.81;5099613;28;21884;-63
2022/03/07 11:02:03;;;;;;;5.38;4.05;;;;;;;22.84;nan;99209.16;5099853;28;20151;-63
2022/03/07 11:04:29;;;;;;;5.25;4.18;;;;;;;22.81;nan;99201.59;5096469;28;20598;-63
2022/03/07 11:06:56;;;;;;;6.40;4.47;;;;;;;22.78;nan;99205.94;5101171;28;20109;-63
2022/03/07 11:09:21;;;;;;;6.22;4.18;;;;;;;22.73;nan;99197.97;5099144;28;20061;-62
2022/03/07 11:11:47;;;;;;;5.65;4.28;;;;;;;22.75;nan;99200.38;5086898;28;20051;-65
2022/03/07 11:14:13;;;;;;;6.45;4.65;;;;;;;22.74;nan;99196.00;5102268;28;20048;-63
2022/03/07 11:16:40;;;;;;;5.88;4.38;;;;;;;22.72;nan;99198.38;5101983;28;20535;-63
2022/03/07 11:19:06;;;;;;;6.30;4.25;;;;;;;22.71;nan;99191.19;5097191;28;20810;-62
2022/03/07 11:21:32;;;;;;;6.93;4.65;;;;;;;22.68;nan;99180.84;5095060;28;20078;-63
2022/03/07 11:23:58;;;;;;;9.38;4.50;;;;;;;22.67;nan;99184.81;5094701;28;20486;-64
2022/03/07 11:26:24;;;;;;;5.30;3.97;;;;;;;22.64;nan;99180.00;5108822;28;20054;-64
2022/03/07 11:28:55;;;;;;;6.63;4.57;;;;;;;22.64;nan;99183.59;5098983;28;20059;-63
2022/03/07 11:31:26;;;;;;;7.93;4.40;;;;;;;22.64;nan;99182.78;5095420;28;20043;-63
2022/03/07 11:33:53;;;;;;;7.18;4.47;;;;;;;22.62;nan;99171.25;5097906;28;20124;-61
2022/03/07 11:36:21;;;;;;;10.23;5.93;;;;;;;22.60;nan;99173.63;5095200;28;20071;-63
2022/03/07 11:39:00;;;;;;;11.35;8.48;;;;;;;22.59;nan;99167.25;5097400;28;20055;-63
2022/03/07 11:41:36;;;;;;;8.75;6.25;;;;;;;22.54;nan;99170.44;5102877;28;20035;-64
2022/03/07 11:44:01;;;;;;;8.02;5.95;;;;;;;22.51;nan;99171.22;5099758;28;20047;-63